Time;durP1;ratioP1;P1;durP2;ratioP2;P2;SDS_P1;SDS_P2;PMS_P1;PMS_P2;Temp;Humidity;BMP_temperature;BMP_pressure;BME280_temperature;BME280_humidity;BME280_pressure;Samples;Min_cycle;Max_cycle;Signal;HPM_P1;HPM_P2
2021/07/15 00:01:46;;;;;;;2.75;1.00;;;;;;;;;;3567099;40;20746;-64
2021/07/15 00:04:14;;;;;;;2.30;0.90;;;;;;;;;;3575212;40;20413;-64
2021/07/15 00:06:40;;;;;;;2.78;1.10;;;;;;;;;;3565363;40;20739;-64
2021/07/15 00:09:06;;;;;;;2.47;1.02;;;;;;;;;;3576599;40;20771;-64
2021/07/15 00:11:34;;;;;;;3.03;0.98;;;;;;;;;;3563846;40;20402;-64
2021/07/15 00:14:00;;;;;;;2.50;1.03;;;;;;;;;;3566334;40;20393;-64
2021/07/15 00:16:26;;;;;;;2.55;0.82;;;;;;;;;;3569511;40;20417;-65
2021/07/15 00:18:53;;;;;;;1.58;1.05;;;;;;;;;;3571876;40;20424;-64
2021/07/15 00:21:22;;;;;;;2.22;1.00;;;;;;;;;;3567631;40;20481;-65
2021/07/15 00:23:48;;;;;;;2.07;1.20;;;;;;;;;;3573597;40;20519;-64
2021/07/15 00:26:15;;;;;;;3.05;1.00;;;;;;;;;;3567281;40;20815;-64
2021/07/15 00:28:42;;;;;;;1.80;1.02;;;;;;;;;;3567053;40;20464;-64
2021/07/15 00:31:08;;;;;;;3.85;1.08;;;;;;;;;;3572001;40;20377;-64
2021/07/15 00:33:35;;;;;;;2.95;1.20;;;;;;;;;;3574514;40;20370;-64
2021/07/15 00:36:01;;;;;;;2.30;0.80;;;;;;;;;;3563613;40;20481;-64
2021/07/15 00:38:29;;;;;;;2.60;1.25;;;;;;;;;;3569965;40;20391;-64
2021/07/15 00:40:55;;;;;;;3.63;0.90;;;;;;;;;;3567611;40;20440;-64
2021/07/15 00:43:21;;;;;;;2.83;1.25;;;;;;;;;;3566555;40;20381;-64
2021/07/15 00:45:48;;;;;;;3.97;1.20;;;;;;;;;;3568915;40;20406;-64
2021/07/15 00:48:14;;;;;;;5.72;1.50;;;;;;;;;;3568212;40;20386;-64
2021/07/15 00:50:40;;;;;;;3.40;1.00;;;;;;;;;;3569038;40;20385;-64
2021/07/15 00:53:08;;;;;;;2.72;1.10;;;;;;;;;;3568413;40;20384;-65
2021/07/15 00:55:37;;;;;;;4.32;1.40;;;;;;;;;;3574430;40;20392;-64
2021/07/15 00:58:03;;;;;;;4.70;1.23;;;;;;;;;;3564641;40;20400;-64
2021/07/15 01:00:29;;;;;;;2.78;1.27;;;;;;;;;;3571773;40;20770;-68
2021/07/15 01:05:27;;;;;;;3.20;1.20;;;;;;;;;;3579250;40;20401;-77
2021/07/15 01:07:54;;;;;;;2.10;1.00;;;;;;;;;;3572485;40;20397;-76
2021/07/15 01:10:23;;;;;;;3.47;1.30;;;;;;;;;;3580366;40;20356;-78
2021/07/15 01:12:57;;;;;;;2.63;1.10;;;;;;;;;;3578695;40;20413;-78
2021/07/15 01:15:24;;;;;;;2.85;1.10;;;;;;;;;;3583413;40;20602;-77
2021/07/15 01:17:54;;;;;;;3.13;1.10;;;;;;;;;;3589415;40;20351;-78
2021/07/15 01:20:38;;;;;;;1.80;0.90;;;;;;;;;;3581605;40;20411;-78
2021/07/15 01:36:13;;;;;;;3.13;1.10;;;;;;;;;;3708982;23;20430;-77
2021/07/15 01:38:44;;;;;;;3.85;1.20;;;;;;;;;;1488167;23;20667;-78
2021/07/15 01:48:36;;;;;;;3.03;1.10;;;;;;;;;;3590255;39;20395;-78
2021/07/15 01:51:02;;;;;;;4.57;1.23;;;;;;;;;;3582755;40;20723;-75
2021/07/15 01:53:29;;;;;;;3.10;1.30;;;;;;;;;;3580097;40;20368;-73
2021/07/15 01:55:57;;;;;;;2.45;1.00;;;;;;;;;;3580472;40;20371;-73
2021/07/15 01:58:23;;;;;;;3.28;1.25;;;;;;;;;;3580550;40;20372;-73
2021/07/15 02:00:50;;;;;;;5.72;1.48;;;;;;;;;;3581678;40;20423;-75
2021/07/15 02:03:16;;;;;;;2.60;1.40;;;;;;;;;;3580362;40;20389;-73
2021/07/15 02:05:43;;;;;;;2.92;1.00;;;;;;;;;;3570183;40;20374;-73
2021/07/15 02:08:10;;;;;;;4.03;1.10;;;;;;;;;;3562329;40;20506;-73
2021/07/15 02:10:36;;;;;;;3.70;1.00;;;;;;;;;;3570792;40;20423;-73
2021/07/15 02:13:08;;;;;;;2.70;1.13;;;;;;;;;;3566384;40;20362;-73
2021/07/15 02:15:34;;;;;;;2.65;0.90;;;;;;;;;;3560434;40;20859;-74
2021/07/15 02:18:01;;;;;;;2.80;1.20;;;;;;;;;;3560784;40;20348;-73
2021/07/15 02:20:28;;;;;;;2.60;0.80;;;;;;;;;;3560296;40;20356;-72
2021/07/15 02:22:55;;;;;;;2.37;1.10;;;;;;;;;;3558060;40;20419;-74
2021/07/15 02:25:22;;;;;;;2.30;0.90;;;;;;;;;;3562898;40;20380;-74
2021/07/15 02:27:49;;;;;;;1.63;1.05;;;;;;;;;;3563561;40;20431;-73
2021/07/15 02:30:18;;;;;;;2.70;1.00;;;;;;;;;;3560957;40;20488;-74
2021/07/15 02:32:46;;;;;;;7.10;1.60;;;;;;;;;;3576857;40;20369;-74
2021/07/15 02:35:14;;;;;;;2.10;1.00;;;;;;;;;;3563355;40;20356;-74
2021/07/15 02:37:42;;;;;;;3.13;1.00;;;;;;;;;;3565853;40;20377;-74
2021/07/15 02:40:10;;;;;;;2.55;1.10;;;;;;;;;;3563368;40;20629;-74
2021/07/15 02:42:36;;;;;;;2.78;0.93;;;;;;;;;;3575264;40;20379;-74
2021/07/15 02:45:04;;;;;;;3.38;1.50;;;;;;;;;;3576450;40;20464;-74
2021/07/15 02:47:31;;;;;;;3.57;1.50;;;;;;;;;;3571934;40;20596;-74
2021/07/15 02:49:57;;;;;;;5.22;1.30;;;;;;;;;;3552905;40;20411;-73
2021/07/15 02:52:23;;;;;;;2.92;1.25;;;;;;;;;;3563832;40;20814;-74
2021/07/15 02:54:50;;;;;;;3.83;1.40;;;;;;;;;;3561590;40;20385;-75
2021/07/15 02:57:21;;;;;;;3.40;1.60;;;;;;;;;;3560631;40;20871;-76
2021/07/15 02:59:52;;;;;;;2.95;1.88;;;;;;;;;;3564234;40;20367;-74
2021/07/15 03:02:20;;;;;;;2.97;1.77;;;;;;;;;;3563172;40;20434;-74
2021/07/15 03:04:49;;;;;;;3.40;1.50;;;;;;;;;;3560687;40;20453;-75
2021/07/15 03:07:15;;;;;;;3.55;1.48;;;;;;;;;;3561334;40;20712;-75
2021/07/15 03:09:42;;;;;;;3.63;1.20;;;;;;;;;;3564991;40;20368;-74
2021/07/15 03:12:11;;;;;;;1.25;1.13;;;;;;;;;;3559429;40;20469;-73
2021/07/15 03:14:38;;;;;;;2.38;1.10;;;;;;;;;;3565562;40;20628;-73
2021/07/15 03:17:06;;;;;;;2.83;1.40;;;;;;;;;;3554889;40;20405;-73
2021/07/15 03:19:33;;;;;;;3.15;1.35;;;;;;;;;;3564998;40;20352;-73
2021/07/15 03:22:01;;;;;;;2.28;1.27;;;;;;;;;;3559791;40;20415;-75
2021/07/15 03:24:29;;;;;;;3.63;2.10;;;;;;;;;;3570132;40;20387;-73
2021/07/15 03:26:57;;;;;;;4.10;1.92;;;;;;;;;;3562713;40;20402;-74
2021/07/15 03:29:24;;;;;;;3.05;1.63;;;;;;;;;;3562730;40;20375;-74
2021/07/15 03:31:50;;;;;;;7.13;3.20;;;;;;;;;;3557475;40;20363;-74
2021/07/15 03:34:17;;;;;;;5.30;2.40;;;;;;;;;;3569596;40;20386;-73
2021/07/15 03:36:49;;;;;;;4.38;2.80;;;;;;;;;;3564784;40;20426;-76
2021/07/15 03:39:17;;;;;;;9.27;5.22;;;;;;;;;;3556481;40;20628;-74
2021/07/15 03:41:43;;;;;;;9.10;5.50;;;;;;;;;;3565027;40;20379;-73
2021/07/15 03:44:10;;;;;;;8.17;4.10;;;;;;;;;;3555935;40;20415;-74
2021/07/15 03:46:36;;;;;;;6.03;3.03;;;;;;;;;;3555158;40;20432;-75
2021/07/15 03:49:04;;;;;;;4.43;2.22;;;;;;;;;;3571715;40;20412;-75
2021/07/15 03:51:33;;;;;;;4.85;2.65;;;;;;;;;;3569514;40;20441;-73
2021/07/15 03:54:00;;;;;;;9.43;5.38;;;;;;;;;;3566908;40;20384;-75
2021/07/15 03:56:29;;;;;;;9.90;5.85;;;;;;;;;;3555456;40;20418;-74
2021/07/15 03:59:00;;;;;;;8.20;4.80;;;;;;;;;;3569139;40;20487;-73
2021/07/15 04:01:28;;;;;;;11.25;5.95;;;;;;;;;;3565215;40;20381;-76
2021/07/15 04:03:55;;;;;;;11.02;5.40;;;;;;;;;;3561016;40;20387;-75
2021/07/15 04:06:22;;;;;;;8.90;5.53;;;;;;;;;;3563761;40;20419;-75
2021/07/15 04:08:50;;;;;;;9.98;6.07;;;;;;;;;;3570010;40;20421;-74
2021/07/15 04:11:16;;;;;;;12.10;6.25;;;;;;;;;;3567665;40;20355;-76
2021/07/15 04:13:44;;;;;;;11.98;6.75;;;;;;;;;;3564855;40;20412;-74
2021/07/15 04:16:16;;;;;;;12.13;6.63;;;;;;;;;;3565620;40;20368;-74
2021/07/15 04:18:43;;;;;;;9.27;5.68;;;;;;;;;;3560194;40;20358;-76
2021/07/15 04:21:11;;;;;;;8.83;5.20;;;;;;;;;;3558285;40;20388;-74
2021/07/15 04:23:38;;;;;;;10.50;5.53;;;;;;;;;;3557171;40;20654;-75
2021/07/15 04:26:05;;;;;;;9.98;5.22;;;;;;;;;;3556266;40;20416;-76
2021/07/15 04:28:32;;;;;;;8.48;4.63;;;;;;;;;;3572459;40;20434;-75
2021/07/15 04:31:00;;;;;;;8.40;3.65;;;;;;;;;;3565094;40;20941;-75
2021/07/15 04:33:27;;;;;;;4.03;2.30;;;;;;;;;;3565064;40;20383;-75
2021/07/15 04:35:54;;;;;;;4.63;2.20;;;;;;;;;;3567941;40;20410;-75
2021/07/15 04:38:22;;;;;;;6.70;2.38;;;;;;;;;;3575815;40;20794;-75
2021/07/15 04:40:49;;;;;;;5.85;2.90;;;;;;;;;;3565574;40;20399;-74
2021/07/15 04:43:16;;;;;;;7.30;3.00;;;;;;;;;;3561027;40;20388;-74
2021/07/15 04:45:44;;;;;;;5.38;2.80;;;;;;;;;;3545304;40;20438;-76
2021/07/15 04:48:12;;;;;;;5.35;2.03;;;;;;;;;;3545269;40;20421;-75
2021/07/15 04:50:40;;;;;;;4.30;2.10;;;;;;;;;;3543359;40;20417;-74
2021/07/15 04:53:07;;;;;;;3.50;1.40;;;;;;;;;;3554710;40;20778;-74
2021/07/15 04:55:33;;;;;;;3.92;1.80;;;;;;;;;;3555193;40;20692;-76
2021/07/15 04:58:00;;;;;;;4.35;1.42;;;;;;;;;;3561378;40;20448;-75
2021/07/15 05:00:27;;;;;;;4.05;1.48;;;;;;;;;;3566140;40;20363;-75
2021/07/15 05:02:57;;;;;;;3.70;1.58;;;;;;;;;;3556255;40;20855;-74
2021/07/15 05:05:24;;;;;;;4.20;1.40;;;;;;;;;;3557118;40;20819;-75
2021/07/15 05:07:50;;;;;;;3.05;1.08;;;;;;;;;;3553947;40;20381;-74
2021/07/15 05:10:17;;;;;;;3.38;1.20;;;;;;;;;;3557103;40;20372;-74
2021/07/15 05:12:43;;;;;;;2.17;1.10;;;;;;;;;;3556417;40;20381;-74
2021/07/15 05:15:11;;;;;;;4.57;1.13;;;;;;;;;;3568942;40;20414;-74
2021/07/15 05:17:37;;;;;;;4.47;1.30;;;;;;;;;;3563595;40;20375;-74
2021/07/15 05:20:04;;;;;;;3.03;0.88;;;;;;;;;;3563493;40;20376;-74
2021/07/15 05:22:32;;;;;;;3.72;1.10;;;;;;;;;;3566016;40;20723;-74
2021/07/15 05:24:58;;;;;;;3.50;1.30;;;;;;;;;;3572108;40;20703;-74
2021/07/15 05:27:24;;;;;;;2.08;1.23;;;;;;;;;;3569412;40;20704;-73
2021/07/15 05:29:50;;;;;;;2.50;1.40;;;;;;;;;;3566048;40;20804;-74
2021/07/15 05:32:16;;;;;;;2.85;1.45;;;;;;;;;;3566200;40;20451;-73
2021/07/15 05:34:43;;;;;;;2.00;1.00;;;;;;;;;;3559946;40;20377;-75
2021/07/15 05:37:09;;;;;;;1.70;1.17;;;;;;;;;;3567603;40;20371;-76
2021/07/15 05:39:38;;;;;;;3.70;1.60;;;;;;;;;;3561636;40;20415;-77
2021/07/15 05:44:32;;;;;;;4.50;1.67;;;;;;;;;;3577902;40;20405;-75
2021/07/15 05:46:58;;;;;;;4.38;1.58;;;;;;;;;;3571507;40;20465;-75
2021/07/15 05:49:25;;;;;;;3.43;1.20;;;;;;;;;;3565751;40;20466;-73
2021/07/15 05:51:51;;;;;;;3.95;1.13;;;;;;;;;;3572965;40;20404;-73
2021/07/15 05:54:17;;;;;;;3.60;1.05;;;;;;;;;;3575558;40;20389;-73
2021/07/15 05:56:44;;;;;;;2.35;1.15;;;;;;;;;;3578300;40;20372;-75
2021/07/15 05:59:10;;;;;;;4.80;1.33;;;;;;;;;;3574067;40;20721;-74
2021/07/15 06:01:37;;;;;;;1.80;1.10;;;;;;;;;;3575654;40;20675;-74
2021/07/15 06:04:03;;;;;;;4.28;1.40;;;;;;;;;;3565032;40;20455;-74
2021/07/15 06:06:29;;;;;;;5.95;1.08;;;;;;;;;;3571408;40;20378;-74
2021/07/15 06:08:55;;;;;;;1.15;0.63;;;;;;;;;;3568814;40;20733;-73
2021/07/15 06:11:22;;;;;;;4.32;0.80;;;;;;;;;;3550325;40;20409;-77
2021/07/15 06:13:49;;;;;;;2.63;0.82;;;;;;;;;;3556479;40;20790;-75
2021/07/15 06:16:16;;;;;;;3.53;1.00;;;;;;;;;;3548128;40;20438;-74
2021/07/15 06:18:42;;;;;;;3.10;1.10;;;;;;;;;;3535857;40;20425;-75
2021/07/15 06:21:08;;;;;;;3.20;1.00;;;;;;;;;;3534478;40;20408;-74
2021/07/15 06:23:34;;;;;;;2.80;0.80;;;;;;;;;;3543928;40;20422;-75
2021/07/15 06:26:01;;;;;;;3.42;1.00;;;;;;;;;;3540902;40;20398;-75
2021/07/15 06:28:27;;;;;;;2.97;0.82;;;;;;;;;;3544211;40;20430;-73
2021/07/15 06:30:55;;;;;;;2.78;1.05;;;;;;;;;;3535974;40;20418;-74
2021/07/15 06:33:24;;;;;;;4.20;0.82;;;;;;;;;;3545902;40;20407;-74
2021/07/15 06:35:51;;;;;;;5.47;1.33;;;;;;;;;;3544737;40;20375;-74
2021/07/15 06:38:18;;;;;;;2.63;1.25;;;;;;;;;;3544688;40;20433;-76
2021/07/15 06:40:48;;;;;;;3.75;1.20;;;;;;;;;;3536171;40;20406;-75
2021/07/15 06:43:14;;;;;;;2.67;1.05;;;;;;;;;;3546102;40;20424;-75
2021/07/15 06:45:40;;;;;;;4.95;1.13;;;;;;;;;;3561515;40;20434;-75
2021/07/15 06:48:08;;;;;;;4.13;1.10;;;;;;;;;;3561342;40;21318;-75
2021/07/15 06:50:34;;;;;;;4.30;0.80;;;;;;;;;;3569439;40;20939;-75
2021/07/15 06:53:00;;;;;;;2.50;0.80;;;;;;;;;;3567133;40;20430;-76
2021/07/15 06:55:27;;;;;;;2.55;1.10;;;;;;;;;;3565727;40;20376;-75
2021/07/15 06:57:53;;;;;;;3.90;1.27;;;;;;;;;;3565233;40;20427;-75
2021/07/15 07:00:20;;;;;;;3.23;0.80;;;;;;;;;;3555143;40;20402;-74
2021/07/15 07:02:46;;;;;;;1.97;0.93;;;;;;;;;;3565780;40;20362;-75
2021/07/15 07:05:15;;;;;;;2.78;0.70;;;;;;;;;;3556325;40;20834;-74
2021/07/15 07:07:41;;;;;;;5.35;1.13;;;;;;;;;;3570928;40;20405;-74
2021/07/15 07:10:08;;;;;;;3.00;0.97;;;;;;;;;;3565647;40;20379;-74
2021/07/15 07:12:34;;;;;;;3.40;0.90;;;;;;;;;;3570313;40;20758;-76
2021/07/15 07:15:00;;;;;;;3.25;0.98;;;19.30;99.90;;;;;;3568000;40;20378;-75
2021/07/15 07:17:26;;;;;;;3.35;1.20;;;20.90;99.90;;;;;;3569969;40;20376;-75
2021/07/15 07:19:53;;;;;;;4.45;1.30;;;;;;;;;;3560619;40;20828;-76
2021/07/15 07:22:20;;;;;;;2.83;1.05;;;;;;;;;;3550838;40;20486;-74
2021/07/15 07:24:46;;;;;;;4.38;0.95;;;;;;;;;;3565182;40;20367;-74
2021/07/15 07:27:13;;;;;;;3.60;1.55;;;;;;;;;;3553210;40;20831;-75
2021/07/15 07:29:39;;;;;;;3.28;1.00;;;;;;;;;;3560955;40;20381;-74
2021/07/15 07:32:05;;;;;;;3.20;1.00;;;;;;;;;;3563874;40;20386;-75
2021/07/15 07:34:31;;;;;;;4.05;1.00;;;;;;;;;;3569530;40;20375;-75
2021/07/15 07:36:58;;;;;;;2.20;0.70;;;;;;;;;;3565997;40;20444;-76
2021/07/15 07:39:25;;;;;;;4.50;0.95;;;21.00;99.90;;;;;;3553987;40;20411;-75
2021/07/15 07:41:51;;;;;;;3.65;0.70;;;21.50;99.90;;;;;;3554258;40;20410;-75
2021/07/15 07:44:17;;;;;;;3.33;0.80;;;;;;;;;;3563344;40;20379;-76
2021/07/15 07:46:43;;;;;;;3.35;1.02;;;21.60;99.90;;;;;;3564896;40;20383;-74
2021/07/15 07:49:10;;;;;;;3.03;0.82;;;;;;;;;;3566542;40;20387;-76
2021/07/15 07:51:36;;;;;;;2.85;0.70;;;;;;;;;;3559927;40;20459;-74
2021/07/15 07:54:02;;;;;;;2.38;0.60;;;;;;;;;;3565594;40;20368;-75
2021/07/15 07:56:32;;;;;;;5.25;1.20;;;;;;;;;;3556951;40;20407;-75
2021/07/15 07:58:59;;;;;;;2.77;0.70;;;;;;;;;;3565482;40;20380;-76
2021/07/15 08:01:26;;;;;;;4.85;0.88;;;;;;;;;;3565065;40;20372;-74
2021/07/15 08:03:52;;;;;;;4.10;1.00;;;;;;;;;;3569540;40;20396;-73
2021/07/15 08:06:18;;;;;;;3.57;0.93;;;;;;;;;;3558696;40;20448;-75
2021/07/15 08:08:45;;;;;;;5.40;1.08;;;;;;;;;;3555336;40;20412;-75
2021/07/15 08:11:11;;;;;;;2.55;0.93;;;;;;;;;;3557426;40;20422;-75
2021/07/15 08:13:39;;;;;;;3.90;1.07;;;;;;;;;;3567655;40;20427;-74
2021/07/15 08:16:05;;;;;;;4.15;0.80;;;;;;;;;;3561543;40;20406;-75
2021/07/15 08:18:31;;;;;;;2.40;0.80;;;;;;;;;;3558256;40;20402;-75
2021/07/15 08:20:57;;;;;;;4.05;0.85;;;;;;;;;;3561584;40;20363;-76
2021/07/15 08:23:23;;;;;;;3.17;0.90;;;;;;;;;;3566671;40;20692;-75
2021/07/15 08:25:50;;;;;;;3.00;0.80;;;;;;;;;;3558593;40;20416;-73
2021/07/15 08:28:16;;;;;;;2.58;0.60;;;;;;;;;;3563331;40;20434;-75
2021/07/15 08:30:43;;;;;;;6.28;1.30;;;;;;;;;;3559641;40;20399;-75
2021/07/15 08:33:10;;;;;;;4.27;1.10;;;;;;;;;;3568480;40;20364;-75
2021/07/15 08:35:36;;;;;;;3.60;0.80;;;;;;;;;;3565182;40;20371;-75
2021/07/15 08:38:03;;;;;;;5.57;1.08;;;;;;;;;;3571391;40;20642;-76
2021/07/15 08:40:30;;;;;;;5.22;1.10;;;;;;;;;;3558309;40;20679;-76
2021/07/15 08:42:56;;;;;;;5.93;1.00;;;;;;;;;;3567759;40;20425;-75
2021/07/15 08:45:23;;;;;;;4.35;1.00;;;;;;;;;;3559339;40;20411;-76
2021/07/15 08:47:51;;;;;;;3.58;0.90;;;;;;;;;;3572651;40;20371;-76
2021/07/15 08:50:18;;;;;;;2.90;0.90;;;;;;;;;;3567561;40;20383;-76
2021/07/15 08:52:47;;;;;;;3.50;0.80;;;;;;;;;;3563534;40;20417;-76
2021/07/15 08:57:41;;;;;;;4.13;0.70;;;;;;;;;;3567306;40;20364;-75
2021/07/15 09:00:09;;;;;;;2.88;0.90;;;;;;;;;;3564810;40;20383;-74
2021/07/15 09:02:35;;;;;;;3.10;0.68;;;;;;;;;;3567071;40;20724;-76
2021/07/15 09:05:03;;;;;;;2.58;0.82;;;;;;;;;;3556202;40;20676;-76
2021/07/15 09:07:30;;;;;;;5.00;1.10;;;;;;;;;;3554646;40;20793;-75
2021/07/15 09:09:56;;;;;;;3.50;1.00;;;;;;;;;;3560824;40;20799;-76
2021/07/15 09:12:22;;;;;;;2.97;0.68;;;;;;;;;;3563394;40;20430;-75
2021/07/15 09:14:49;;;;;;;3.75;1.05;;;;;;;;;;3557333;40;20411;-75
2021/07/15 09:17:15;;;;;;;2.70;0.70;;;;;;;;;;3559462;40;20368;-75
2021/07/15 09:19:42;;;;;;;2.20;0.60;;;;;;;;;;3566533;40;20387;-74
2021/07/15 09:22:11;;;;;;;3.08;0.90;;;;;;;;;;3556802;40;20422;-76
2021/07/15 09:24:38;;;;;;;3.10;0.77;;;;;;;;;;3567443;40;20420;-76
2021/07/15 09:27:12;;;;;;;3.78;0.85;;;;;;;;;;3567267;40;20630;-75
2021/07/15 09:29:38;;;;;;;5.18;1.23;;;;;;;;;;3557285;40;20867;-75
2021/07/15 09:32:05;;;;;;;2.88;0.70;;;;;;;;;;3565008;40;20648;-75
2021/07/15 09:34:34;;;;;;;4.07;0.90;;;;;;;;;;3566426;40;20399;-75
2021/07/15 09:37:08;;;;;;;4.95;1.23;;;;;;;;;;3557765;40;20399;-76
2021/07/15 09:39:40;;;;;;;3.67;0.98;;;;;;;;;;3565910;40;20434;-76
2021/07/15 09:42:14;;;;;;;5.97;1.00;;;;;;;;;;3562073;40;20375;-76
2021/07/15 09:44:43;;;;;;;4.17;0.90;;;;;;;;;;3563256;40;20370;-75
2021/07/15 09:47:10;;;;;;;3.20;1.00;;;;;;;;;;3565314;40;20383;-76
2021/07/15 09:49:37;;;;;;;3.08;0.90;;;;;;;;;;3564898;40;20368;-76
2021/07/15 09:52:04;;;;;;;3.85;0.88;;;;;;;;;;3567248;40;20408;-76
2021/07/15 09:54:30;;;;;;;7.07;1.00;;;;;;;;;;3556693;40;20425;-76
2021/07/15 09:56:58;;;;;;;2.93;0.90;;;;;;;;;;3555300;40;20361;-75
2021/07/15 09:59:24;;;;;;;3.08;0.90;;;;;;;;;;3560601;40;20419;-76
2021/07/15 10:01:51;;;;;;;3.55;0.95;;;;;;;;;;3563593;40;20674;-74
2021/07/15 10:04:21;;;;;;;3.33;0.77;;;;;;;;;;3549620;40;20412;-75
2021/07/15 10:06:50;;;;;;;3.75;1.05;;;;;;;;;;3556340;40;20390;-74
2021/07/15 10:09:20;;;;;;;4.47;0.98;;;;;;;;;;3555226;40;20652;-74
2021/07/15 10:19:21;;;;;;;5.55;1.17;;;;;;;;;;3579850;40;20814;-77
2021/07/15 10:40:08;;;;;;;3.80;1.08;;;;;;;;;;3572767;40;20430;-77
2021/07/15 10:42:34;;;;;;;4.07;0.82;;;;;;;;;;3576731;40;20437;-77
2021/07/15 10:45:01;;;;;;;4.13;1.02;;;;;;;;;;3559234;40;20777;-78
2021/07/15 10:47:27;;;;;;;3.85;0.60;;;;;;;;;;3559014;40;20757;-78
2021/07/15 10:49:55;;;;;;;4.07;1.00;;;;;;;;;;3553417;40;20726;-75
2021/07/15 10:52:22;;;;;;;4.70;1.50;;;;;;;;;;3552888;40;20369;-76
2021/07/15 10:54:48;;;;;;;1.92;0.70;;;;;;;;;;3544722;40;20804;-75
2021/07/15 10:57:19;;;;;;;2.80;0.90;;;21.70;99.90;;;;;;3552295;40;20389;-76
2021/07/15 10:59:45;;;;;;;2.28;0.93;;;;;;;;;;3559358;40;20399;-76
2021/07/15 11:02:20;;;;;;;4.63;1.08;;;;;;;;;;3554791;40;20393;-76
2021/07/15 11:04:47;;;;;;;4.38;0.90;;;;;;;;;;3540859;40;20406;-76
2021/07/15 11:07:18;;;;;;;2.63;1.10;;;;;;;;;;3537439;40;20757;-76
2021/07/15 11:09:45;;;;;;;3.00;0.80;;;;;;;;;;3543223;40;20380;-76
2021/07/15 11:12:26;;;;;;;3.60;0.90;;;;;;;;;;3541797;40;20894;-76
2021/07/15 11:15:00;;;;;;;1.90;0.60;;;;;;;;;;3538077;40;20674;-74
2021/07/15 11:17:27;;;;;;;3.00;0.80;;;;;;;;;;3556031;40;20385;-77
2021/07/15 11:19:55;;;;;;;4.53;0.90;;;;;;;;;;3556525;40;20393;-78
2021/07/15 11:22:44;;;;;;;5.40;0.85;;;;;;;;;;3553357;40;20381;-76
2021/07/15 11:25:11;;;;;;;3.28;1.20;;;;;;;;;;3552492;40;20401;-76
2021/07/15 11:27:42;;;;;;;7.50;1.17;;;;;;;;;;3554312;40;20388;-75
2021/07/15 11:30:11;;;;;;;2.00;0.80;;;;;;;;;;3550202;40;20387;-76
2021/07/15 11:32:37;;;;;;;2.20;0.95;;;;;;;;;;3550373;40;20390;-76
2021/07/15 11:35:20;;;;;;;4.20;0.90;;;;;;;;;;3556521;40;20505;-75
2021/07/15 11:37:51;;;;;;;2.67;0.80;;;;;;;;;;3552445;40;20396;-77
2021/07/15 11:40:40;;;;;;;3.55;0.88;;;;;;;;;;3552923;40;20400;-77
2021/07/15 11:43:14;;;;;;;2.38;1.02;;;;;;;;;;3557584;40;20373;-76
2021/07/15 11:46:01;;;;;;;2.80;0.60;;;;;;;;;;3553948;40;20433;-76
2021/07/15 11:48:43;;;;;;;3.00;0.80;;;;;;;;;;3528443;40;20393;-75
2021/07/15 11:51:25;;;;;;;2.77;0.73;;;;;;;;;;3560770;40;20393;-76
2021/07/15 11:54:10;;;;;;;3.10;0.90;;;;;;;;;;3514188;41;20404;-78
2021/07/15 11:56:36;;;;;;;2.55;0.82;;;;;;;;;;3518191;41;20407;-78
2021/07/15 11:59:02;;;;;;;1.50;0.70;;;;;;;;;;3518385;41;20809;-77
2021/07/15 12:01:33;;;;;;;2.10;0.90;;;;;;;;;;3517389;41;20407;-77
2021/07/15 12:03:59;;;;;;;2.20;0.80;;;;;;;;;;3517245;41;20406;-77
2021/07/15 12:06:26;;;;;;;2.75;1.30;;;;;;;;;;3547771;40;20405;-78
2021/07/15 12:08:52;;;;;;;3.13;1.20;;;;;;;;;;3556411;40;20869;-76
2021/07/15 12:11:19;;;;;;;3.80;0.90;;;;;;;;;;3574672;40;20785;-77
2021/07/15 12:13:49;;;;;;;4.80;1.10;;;;;;;;;;3576057;40;20432;-77
2021/07/15 12:16:18;;;;;;;4.90;1.08;;;;;;;;;;3571030;40;20364;-77
2021/07/15 12:18:46;;;;;;;3.33;1.00;;;;;;;;;;3548637;40;20658;-75
2021/07/15 12:21:12;;;;;;;3.35;1.10;;;;;;;;;;3575141;40;20399;-76
2021/07/15 12:23:41;;;;;;;3.97;1.27;;;;;;;;;;3574885;40;20774;-75
2021/07/15 12:26:09;;;;;;;2.28;0.80;;;;;;;;;;3565078;40;20598;-77
2021/07/15 12:28:35;;;;;;;2.63;0.93;;;;;;;;;;3579562;40;20456;-78
2021/07/15 12:31:03;;;;;;;5.43;1.02;;;;;;;;;;3579629;40;20365;-79
2021/07/15 12:33:36;;;;;;;4.40;1.00;;;;;;;;;;3570074;40;20437;-78
2021/07/15 12:36:09;;;;;;;4.47;1.10;;;;;;;;;;3574061;40;20362;-78
2021/07/15 12:38:36;;;;;;;3.47;1.07;;;;;;;;;;3578288;40;20377;-78
2021/07/15 12:41:10;;;;;;;1.90;0.93;;;;;;;;;;3577715;40;20774;-77
2021/07/15 12:43:40;;;;;;;3.20;0.93;;;;;;;;;;3577064;40;20392;-77
2021/07/15 12:46:09;;;;;;;4.18;1.10;;;;;;;;;;3575716;40;20801;-77
2021/07/15 12:48:39;;;;;;;4.78;1.02;;;;;;;;;;3577070;40;20631;-78
2021/07/15 12:51:05;;;;;;;2.90;1.10;;;;;;;;;;3576155;40;20410;-78
2021/07/15 12:53:38;;;;;;;2.63;1.00;;;;;;;;;;3574857;40;20628;-76
2021/07/15 12:56:04;;;;;;;3.42;1.13;;;;;;;;;;3575922;40;20378;-77
2021/07/15 13:06:33;;;;;;;3.63;1.10;;;;;;;;;;3584870;40;20407;-76
2021/07/15 13:09:15;;;;;;;4.63;1.40;;;;;;;;;;3585992;40;20404;-76
2021/07/15 13:14:27;;;;;;;3.27;0.87;;;;;;;;;;3578470;40;20392;-76
2021/07/15 13:16:54;;;;;;;3.88;1.20;;;;;;;;;;3592919;40;20366;-76
2021/07/15 13:19:22;;;;;;;3.60;1.15;;;23.60;99.60;;;;;;3596447;40;20406;-77
2021/07/15 13:21:49;;;;;;;3.05;1.13;;;23.10;99.30;;;;;;3592420;40;20371;-76
2021/07/15 13:24:19;;;;;;;2.30;0.90;;;23.00;99.90;;;;;;3576518;40;20484;-76
2021/07/15 13:26:47;;;;;;;2.50;1.10;;;23.00;99.70;;;;;;3588557;40;20384;-78
2021/07/15 13:36:57;;;;;;;3.53;1.13;;;23.00;99.80;;;;;;3559279;40;20432;-78
2021/07/15 13:39:35;;;;;;;3.33;1.52;;;23.00;99.80;;;;;;3560803;40;20845;-78
2021/07/15 13:42:01;;;;;;;3.28;1.10;;;23.10;99.90;;;;;;3552823;40;20450;-78
2021/07/15 13:44:27;;;;;;;2.88;1.45;;;23.20;99.40;;;;;;3549823;40;20435;-78
2021/07/15 13:47:01;;;;;;;2.67;1.10;;;23.10;99.40;;;;;;3549872;40;20387;-77
2021/07/15 13:57:57;;;;;;;3.40;1.05;;;23.10;99.90;;;;;;3590173;39;20415;-77
2021/07/15 14:00:26;;;;;;;2.40;0.90;;;23.10;99.20;;;;;;3569972;40;20887;-76
2021/07/15 14:02:54;;;;;;;2.03;1.05;;;23.10;99.30;;;;;;3573694;40;20413;-76
2021/07/15 14:13:03;;;;;;;2.53;0.90;;;;;;;;;;3584837;40;20456;-77
2021/07/15 14:15:31;;;;;;;2.50;0.80;;;;;;;;;;3588162;40;20396;-76
2021/07/15 14:17:59;;;;;;;3.27;1.20;;;;;;;;;;3588385;40;20485;-76
2021/07/15 14:20:25;;;;;;;2.70;0.88;;;;;;;;;;3588029;40;20388;-77
2021/07/15 14:22:51;;;;;;;2.50;1.00;;;;;;;;;;3586733;40;20454;-74
2021/07/15 14:25:17;;;;;;;3.08;0.98;;;;;;;;;;3588498;40;20364;-77
2021/07/15 14:27:45;;;;;;;3.85;0.70;;;;;;;;;;3586042;40;20858;-78
2021/07/15 14:30:13;;;;;;;4.00;1.10;;;;;;;;;;3589090;40;20396;-78
2021/07/15 14:32:40;;;;;;;3.20;0.90;;;;;;;;;;3595112;40;20413;-76
2021/07/15 14:35:07;;;;;;;2.38;0.68;;;;;;;;;;3587593;40;20539;-76
2021/07/15 14:37:33;;;;;;;1.52;0.77;;;;;;;;;;3577141;40;20487;-75
2021/07/15 14:39:59;;;;;;;1.98;0.80;;;;;;;;;;3572774;40;20918;-75
2021/07/15 14:42:26;;;;;;;2.70;0.90;;;;;;;;;;3578602;40;20395;-76
2021/07/15 14:44:52;;;;;;;1.98;0.95;;;;;;;;;;3572969;40;20414;-75
2021/07/15 14:47:19;;;;;;;3.53;0.95;;;;;;;;;;3585139;40;20388;-76
2021/07/15 14:49:45;;;;;;;1.65;1.00;;;;;;;;;;3586132;40;20396;-75
2021/07/15 14:52:12;;;;;;;2.92;0.82;;;;;;;;;;3585453;40;20754;-77
2021/07/15 14:54:38;;;;;;;2.65;0.80;;;;;;;;;;3576086;40;20400;-78
2021/07/15 14:57:04;;;;;;;1.33;0.70;;;;;;;;;;3584819;40;20388;-75
2021/07/15 14:59:30;;;;;;;3.22;0.77;;;;;;;;;;3586072;40;20385;-74
2021/07/15 15:01:56;;;;;;;3.63;1.05;;;;;;;;;;3585203;40;20377;-77
2021/07/15 15:04:24;;;;;;;2.13;1.00;;;;;;;;;;3591537;40;20398;-76
2021/07/15 15:06:50;;;;;;;2.03;0.70;;;;;;;;;;3595346;40;20606;-75
2021/07/15 15:09:16;;;;;;;2.65;1.00;;;;;;;;;;3580438;40;20398;-78
2021/07/15 15:11:42;;;;;;;2.43;1.10;;;;;;;;;;3589931;40;20410;-77
2021/07/15 15:14:09;;;;;;;2.50;0.70;;;;;;;;;;3593444;40;20468;-76
2021/07/15 15:16:35;;;;;;;2.55;0.68;;;;;;;;;;3593655;40;20417;-75
2021/07/15 15:19:01;;;;;;;2.05;0.60;;;;;;;;;;3591877;40;20425;-76
2021/07/15 15:21:29;;;;;;;3.33;1.08;;;;;;;;;;3580641;40;20394;-76
2021/07/15 15:23:56;;;;;;;2.92;0.90;;;;;;;;;;3586344;40;20410;-78
2021/07/15 15:26:22;;;;;;;2.97;1.10;;;;;;;;;;3589101;40;20404;-77
2021/07/15 15:28:48;;;;;;;3.08;0.90;;;;;;;;;;3589024;40;20408;-77
2021/07/15 15:31:14;;;;;;;3.10;0.90;;;;;;;;;;3598121;40;20369;-77
2021/07/15 15:33:40;;;;;;;1.45;0.80;;;;;;;;;;3595249;40;20412;-76
2021/07/15 15:36:07;;;;;;;3.90;1.00;;;;;;;;;;3591121;40;20368;-76
2021/07/15 15:38:39;;;;;;;2.90;0.90;;;;;;;;;;3586221;40;20452;-77
2021/07/15 15:41:05;;;;;;;3.17;0.90;;;;;;;;;;3564889;40;20399;-76
2021/07/15 15:43:31;;;;;;;2.27;0.83;;;;;;;;;;3562608;40;20427;-75
2021/07/15 15:45:57;;;;;;;2.28;0.88;;;;;;;;;;3565182;40;20388;-76
2021/07/15 15:48:23;;;;;;;2.50;0.80;;;;;;;;;;3565265;40;20386;-76
2021/07/15 15:50:50;;;;;;;2.00;0.73;;;;;;;;;;3563464;40;20403;-74
2021/07/15 15:53:16;;;;;;;2.90;0.98;;;;;;;;;;3566245;40;20411;-77
2021/07/15 15:55:43;;;;;;;2.72;1.17;;;;;;;;;;3562244;40;20404;-76
2021/07/15 16:09:06;;;;;;;1.85;0.80;;;;;;;;;;3590238;40;22591;-74
2021/07/15 16:11:35;;;;;;;2.90;1.25;;;;;;;;;;3593370;39;20406;-75
2021/07/15 16:14:01;;;;;;;3.50;1.00;;;;;;;;;;3590196;40;20391;-75
2021/07/15 16:16:28;;;;;;;4.57;1.30;;;;;;;;;;3583571;40;20404;-75
2021/07/15 16:18:54;;;;;;;3.57;0.83;;;;;;;;;;3585595;40;20372;-75